Latest Weather Observations for Williamtown

IDN60801

Issued at 11:32 pm EST Monday 26 June 2017 (issued every 30 minutes, with the page automatically refreshed every 10 minutes)

About weather observations | Map of weather stations | Latest weather observations for NSW | Other Formats
Station Details ID: 061078 Name: WILLIAMTOWN RAAF Lat: -32.79 Lon: 151.84 Height: 7.5 m
Data from the previous 72 hours. | See also: Recent months at Williamtown
Date/Time
EST
Temp
°C
App
Temp
°C
Dew
Point
°C
Rel
Hum
%
Delta-T
°C
Wind Press
QNH
hPa
Press
MSL
hPa
Rain since
9am
mm
Dir  Spd
km/h
Gust
km/h
Spd
kts
Gust
kts
26/11:30pm 6.5 3.8 5.8 95 0.3 NW 9 11 5 6 1025.0 1025.0 0.0
26/11:00pm 5.8 2.9 4.9 94 0.4 WNW 9 11 5 6 1025.2 1025.2 0.0
26/10:30pm 6.3 4.1 5.4 94 0.4 WNW 6 7 3 4 1024.9 1024.9 0.0
26/10:00pm 7.1 4.9 6.0 93 0.5 NW 7 9 4 5 1024.8 1024.8 0.0
26/09:30pm 7.1 4.8 5.9 92 0.5 NNW 7 9 4 5 1024.7 1024.7 0.0
26/09:00pm 7.6 6.7 6.1 90 0.7 CALM 0 0 0 0 1024.3 1024.3 0.0
26/08:30pm 8.1 7.2 6.1 87 0.9 CALM 0 0 0 0 1024.2 1024.2 0.0
26/08:00pm 8.5 7.7 6.6 88 0.9 CALM 0 0 0 0 1024.2 1024.2 0.0
26/07:30pm 9.4 8.8 7.3 87 1.0 CALM 0 0 0 0 1023.9 1023.9 0.0
26/07:00pm 9.0 8.2 6.4 84 1.2 CALM 0 0 0 0 1023.6 1023.6 0.0
26/06:30pm 10.3 9.7 7.5 83 1.3 CALM 0 0 0 0 1023.2 1023.2 0.0
26/06:00pm 11.3 10.7 7.4 77 1.9 CALM 0 0 0 0 1022.8 1022.8 0.0
26/05:30pm 12.3 11.8 8.0 75 2.1 CALM 0 0 0 0 1022.5 1022.5 0.0
26/05:00pm 14.7 12.4 5.5 54 4.3 ESE 7 9 4 5 1022.0 1022.0 0.0
26/04:30pm 15.5 12.8 5.7 52 4.7 SE 9 11 5 6 1021.9 1021.9 0.0
26/04:00pm 16.4 12.8 5.1 47 5.4 SE 13 15 7 8 1021.8 1021.8 0.0
26/03:30pm 17.2 13.2 4.9 44 5.9 SSE 15 17 8 9 1021.6 1021.6 0.0
26/03:00pm 17.3 13.2 4.3 42 6.1 SSE 15 19 8 10 1021.2 1021.2 0.0
26/02:30pm 17.4 13.4 4.7 43 6.0 SSE 15 17 8 9 1021.1 1021.1 0.0
26/02:00pm 17.8 14.0 3.7 39 6.6 SSW 13 20 7 11 1021.2 1021.2 0.0
26/01:30pm 18.0 14.6 4.2 40 6.5 SSW 11 17 6 9 1021.2 1021.2 0.0
26/01:00pm 17.6 14.3 6.2 47 5.6 SW 13 22 7 12 1021.3 1021.3 0.0
26/12:30pm 17.8 15.2 6.3 47 5.7 WNW 9 15 5 8 1021.5 1021.5 0.0
26/12:00pm 17.0 13.4 6.8 51 5.0 WNW 15 20 8 11 1021.6 1021.6 0.0
26/11:30am 16.1 12.1 6.5 53 4.7 WNW 17 26 9 14 1022.0 1022.0 0.0
26/11:00am 15.7 11.2 6.2 53 4.6 WNW 19 26 10 14 1022.2 1022.2 0.0
26/10:30am 14.8 10.4 7.6 62 3.6 WNW 20 26 11 14 1022.5 1022.5 0.0
26/10:00am 14.0 9.2 7.5 65 3.2 WNW 22 28 12 15 1022.4 1022.4 0.0
26/09:30am 12.8 8.4 7.3 69 2.7 WNW 20 26 11 14 1022.4 1022.4 0.0
26/09:00am 11.6 7.8 7.7 77 1.9 WNW 17 20 9 11 1022.3 1022.3 0.0
26/08:30am 10.3 6.5 7.4 82 1.4 NW 17 20 9 11 1021.8 1021.8 0.0
26/08:00am 9.1 5.5 6.7 85 1.1 NW 15 19 8 10 1021.4 1021.4 0.0
26/07:30am 8.3 4.2 6.4 88 0.9 WNW 17 20 9 11 1021.0 1021.0 0.0
26/07:00am 7.5 3.0 6.0 90 0.7 WNW 19 22 10 12 1020.4 1020.4 0.0
26/06:30am 7.6 3.5 6.2 91 0.6 NW 17 20 9 11 1020.3 1020.3 0.0
26/06:00am 7.9 3.4 6.2 89 0.8 NW 19 20 10 11 1019.9 1019.9 0.0
26/05:30am 8.1 4.0 6.4 89 0.8 NW 17 19 9 10 1019.4 1019.4 0.0
26/05:00am 8.4 5.1 6.4 87 0.9 NW 13 17 7 9 1019.2 1019.2 0.0
26/04:30am 8.0 4.7 6.5 90 0.7 NW 13 15 7 8 1019.0 1019.0 0.0
26/04:00am 7.5 4.2 6.4 93 0.5 NW 13 15 7 8 1018.9 1018.9 0.0
26/03:30am 6.9 4.3 6.2 95 0.3 NW 9 11 5 6 1018.9 1018.9 0.0
26/03:00am 6.0 3.6 5.4 96 0.3 NW 7 11 4 6 1018.9 1018.9 0.0
26/02:30am 7.0 6.2 6.4 96 0.3 CALM 0 0 0 0 1018.7 1018.7 0.0
26/02:00am 6.5 5.5 5.6 94 0.4 CALM 0 6 0 3 1018.4 1018.4 0.0
26/01:30am 6.5 5.1 5.5 93 0.4 NW 2 6 1 3 1018.4 1018.4 0.0
26/01:00am 7.7 7.0 6.8 94 0.4 CALM 0 0 0 0 1018.4 1018.4 0.0
26/12:30am 7.6 6.8 6.5 93 0.5 CALM 0 6 0 3 1018.5 1018.5 0.0
26/12:00am 8.4 6.4 7.3 93 0.5 NNW 7 9 4 5 1018.4 1018.4 0.0
 
Date/Time
EST
Temp
°C
App
Temp
°C
Dew
Point
°C
Rel
Hum
%
Delta-T
°C
Wind Press
QNH
hPa
Press
MSL
hPa
Rain since
9am
mm
Dir  Spd
km/h
Gust
km/h
Spd
kts
Gust
kts
25/11:30pm 8.7 7.0 7.5 92 0.6 NW 6 9 3 5 1018.7 1018.7 0.0
25/11:00pm 8.6 6.3 7.4 92 0.6 NW 9 9 5 5 1019.0 1019.0 0.0
25/10:30pm 9.7 7.1 7.8 88 0.9 NW 11 13 6 7 1018.9 1018.9 0.0
25/10:00pm 10.0 7.0 7.9 87 1.0 NW 13 15 7 8 1018.7 1018.7 0.0
25/09:30pm 9.2 6.7 8.0 92 0.6 NW 11 13 6 7 1018.5 1018.5 0.0
25/09:00pm 9.3 8.5 8.1 92 0.6 WSW 2 7 1 4 1018.2 1018.2 0.0
25/08:30pm 10.1 9.9 8.9 92 0.6 CALM 0 0 0 0 1018.1 1018.1 0.0
25/08:00pm 9.4 7.2 7.7 89 0.8 WSW 9 9 5 5 1018.1 1018.1 0.0
25/07:30pm 10.4 8.8 8.2 86 1.1 WSW 6 7 3 4 1018.0 1018.0 0.0
25/07:00pm 11.3 9.6 8.2 81 1.5 WSW 7 11 4 6 1017.5 1017.5 0.0
25/06:30pm 12.3 11.8 7.8 74 2.2 CALM 0 0 0 0 1017.0 1017.0 0.0
25/06:00pm 13.3 12.3 7.5 68 2.8 WNW 2 6 1 3 1016.6 1016.6 0.0
25/05:30pm 14.8 12.3 8.1 64 3.4 WNW 11 13 6 7 1016.3 1016.3 0.0
25/05:00pm 15.8 13.3 8.1 60 3.9 WNW 11 13 6 7 1015.8 1015.8 0.0
25/04:30pm 17.5 13.6 7.3 51 5.1 WNW 17 19 9 10 1015.7 1015.7 0.0
25/04:00pm 18.7 14.2 6.9 46 5.9 WNW 20 28 11 15 1015.5 1015.5 0.0
25/03:30pm 19.1 13.8 6.6 44 6.2 WNW 24 33 13 18 1015.6 1015.6 0.0
25/03:00pm 19.4 14.8 6.5 43 6.4 WNW 20 30 11 16 1015.6 1015.6 0.0
25/02:30pm 19.5 14.5 6.6 43 6.5 WNW 22 30 12 16 1015.8 1015.8 0.0
25/02:00pm 19.3 12.7 6.1 42 6.5 NW 30 43 16 23 1015.8 1015.8 0.0
25/01:30pm 18.8 13.8 6.3 44 6.2 WNW 22 32 12 17 1015.9 1015.9 0.0
25/01:00pm 18.6 13.5 6.1 44 6.2 WNW 22 32 12 17 1016.3 1016.3 0.0
25/12:30pm 17.9 12.0 5.8 45 5.9 NW 26 32 14 17 1016.8 1016.8 0.0
25/12:00pm 17.8 13.3 6.3 47 5.7 NW 19 28 10 15 1017.3 1017.3 0.0
25/11:30am 17.7 13.6 6.3 47 5.6 WNW 17 30 9 16 1017.8 1017.8 0.0
25/11:00am 16.9 11.6 6.7 51 5.0 WNW 24 30 13 16 1018.3 1018.3 0.0
25/10:30am 15.8 11.5 7.1 56 4.3 NW 19 26 10 14 1018.8 1018.8 0.0
25/10:00am 14.5 9.3 7.3 62 3.5 WNW 24 30 13 16 1019.0 1019.0 0.0
25/09:30am 13.1 8.4 7.8 70 2.6 WNW 22 28 12 15 1019.3 1019.3 0.0
25/09:00am 12.4 9.3 7.3 71 2.5 WNW 13 19 7 10 1019.1 1019.1 0.0
25/08:30am 10.8 9.0 7.3 79 1.7 WSW 6 7 3 4 1019.1 1019.1 0.0
25/08:00am 9.7 9.1 7.6 87 1.0 CALM 0 0 0 0 1018.7 1018.7 0.0
25/07:30am 7.9 5.3 6.2 89 0.8 WSW 9 9 5 5 1018.5 1018.5 0.0
25/07:00am 7.9 5.3 6.2 89 0.8 WSW 9 11 5 6 1018.3 1018.3 0.0
25/06:30am 7.7 4.6 5.5 86 1.0 WNW 11 20 6 11 1018.4 1018.4 0.0
25/06:00am 8.2 5.7 6.5 89 0.8 NW 9 13 5 7 1018.0 1018.0 0.0
25/05:30am 8.0 5.6 6.9 93 0.5 NW 9 11 5 6 1017.5 1017.5 0.0
25/05:00am 7.7 5.2 6.6 93 0.5 NW 9 11 5 6 1017.6 1017.6 0.0
25/04:30am 7.3 5.7 6.2 93 0.5 NW 4 7 2 4 1017.4 1017.4 0.0
25/04:00am 7.7 5.2 6.6 93 0.5 WNW 9 11 5 6 1017.5 1017.5 0.0
25/03:30am 7.8 5.7 6.7 93 0.5 NW 7 9 4 5 1017.4 1017.4 0.0
25/03:00am 7.4 4.5 6.3 93 0.5 NW 11 13 6 7 1017.6 1017.6 0.0
25/02:30am 7.2 4.6 6.1 93 0.5 WNW 9 11 5 6 1017.6 1017.6 0.0
25/02:00am 7.7 5.6 6.6 93 0.5 NW 7 9 4 5 1017.6 1017.6 0.0
25/01:30am 7.5 5.3 6.3 92 0.5 NW 7 9 4 5 1017.5 1017.5 0.0
25/01:00am 7.7 5.5 6.2 90 0.7 NW 7 9 4 5 1017.6 1017.6 0.0
25/12:30am 8.2 5.8 7.0 92 0.6 WNW 9 9 5 5 1017.8 1017.8 0.0
25/12:00am 8.5 7.1 7.1 91 0.7 NW 4 11 2 6 1017.7 1017.7 0.0
 
Date/Time
EST
Temp
°C
App
Temp
°C
Dew
Point
°C
Rel
Hum
%
Delta-T
°C
Wind Press
QNH
hPa
Press
MSL
hPa
Rain since
9am
mm
Dir  Spd
km/h
Gust
km/h
Spd
kts
Gust
kts
24/11:30pm 8.3 5.9 7.1 92 0.6 NW 9 11 5 6 1017.9 1017.9 0.0
24/11:00pm 8.1 5.4 7.2 94 0.4 WNW 11 13 6 7 1017.8 1017.8 0.0
24/10:30pm 8.0 6.2 7.1 94 0.4 WSW 6 9 3 5 1017.6 1017.6 0.0
24/10:00pm 7.7 5.8 6.8 94 0.4 WSW 6 7 3 4 1017.7 1017.7 0.0
24/09:30pm 9.0 7.3 8.2 95 0.4 WSW 7 7 4 4 1017.7 1017.7 0.0
24/09:00pm 8.8 8.3 7.9 94 0.4 CALM 0 0 0 0 1017.6 1017.6 0.0
24/08:30pm 8.7 6.8 7.5 92 0.6 NW 7 11 4 6 1017.1 1017.1 0.0
24/08:00pm 8.9 7.2 7.5 91 0.7 NNW 6 9 3 5 1016.8 1016.8 0.0
24/07:30pm 9.6 8.4 7.9 89 0.8 NW 4 9 2 5 1016.9 1016.9 0.0
24/07:00pm 10.2 8.6 8.1 87 1.0 N 6 6 3 3 1016.7 1016.7 0.0
24/06:30pm 10.7 8.7 8.5 86 1.1 N 9 11 5 6 1016.4 1016.4 0.0
24/06:00pm 12.3 11.7 8.8 79 1.7 ENE 2 7 1 4 1016.2 1016.2 0.0
24/05:30pm 12.6 11.6 8.9 78 1.9 NNW 4 6 2 3 1016.0 1016.0 0.0
24/05:00pm 14.1 13.8 8.5 69 2.8 CALM 0 0 0 0 1015.7 1015.7 0.0
24/04:30pm 17.2 15.7 7.0 51 5.1 WNW 4 7 2 4 1015.8 1015.8 0.0
24/04:00pm 18.2 14.8 5.8 44 6.1 WNW 13 17 7 9 1015.8 1015.8 0.0
24/03:30pm 18.7 14.9 5.9 43 6.3 W 15 19 8 10 1015.8 1015.8 0.0
24/03:00pm 18.8 14.0 4.6 39 6.8 W 19 28 10 15 1015.5 1015.5 0.0
24/02:30pm 19.0 13.7 5.1 40 6.7 WNW 22 32 12 17 1015.6 1015.6 0.0
24/02:00pm 19.0 13.3 5.1 40 6.7 WNW 24 35 13 19 1015.6 1015.6 0.0
24/01:30pm 18.9 12.5 5.4 41 6.6 WNW 28 35 15 19 1015.4 1015.4 0.0
24/01:00pm 18.6 12.4 4.4 39 6.8 W 26 33 14 18 1015.6 1015.6 0.0
24/12:30pm 18.5 11.6 4.7 40 6.6 WNW 30 39 16 21 1015.8 1015.8 0.0
24/12:00pm 18.2 11.9 5.8 44 6.1 WNW 28 35 15 19 1016.2 1016.2 0.0
24/11:30am 17.6 11.4 6.2 47 5.6 WNW 28 35 15 19 1016.8 1016.8 0.0
24/11:00am 16.8 10.5 5.7 48 5.4 WNW 28 35 15 19 1017.1 1017.1 0.0
24/10:30am 16.2 9.5 5.5 49 5.1 WNW 30 37 16 20 1017.5 1017.5 0.0
24/10:00am 15.6 8.2 5.2 50 4.9 WNW 33 44 18 24 1017.8 1017.8 0.0
24/09:30am 14.4 6.9 4.7 52 4.5 WNW 33 41 18 22 1017.7 1017.7 0.0
24/09:00am 13.4 6.1 4.6 55 4.0 WNW 32 41 17 22 1017.7 1017.7 0.0
24/08:30am 12.6 5.6 4.1 56 3.8 WNW 30 39 16 21 1017.3 1017.3 0.0
24/08:00am 11.9 6.5 4.4 60 3.4 WNW 22 32 12 17 1017.4 1017.4 0.0
24/07:30am 11.6 6.5 4.1 60 3.4 WNW 20 33 11 18 1016.9 1016.9 0.0
24/07:00am 11.8 5.2 4.1 59 3.4 WNW 28 35 15 19 1016.5 1016.5 0.0
24/06:30am 11.6 5.0 4.3 61 3.3 WNW 28 35 15 19 1015.9 1015.9 0.0
24/06:00am 11.5 4.9 4.3 61 3.2 WNW 28 37 15 20 1015.6 1015.6 0.0
24/05:30am 11.1 4.5 4.3 63 3.0 WNW 28 33 15 18 1015.2 1015.2 0.0
24/05:00am 10.6 4.1 4.5 66 2.7 WNW 28 35 15 19 1015.0 1015.0 0.0
24/04:30am 10.9 5.5 4.6 65 2.8 WNW 22 30 12 16 1014.7 1014.7 0.0
24/04:00am 10.7 5.7 4.8 67 2.7 WNW 20 26 11 14 1014.8 1014.8 0.0
24/03:30am 10.9 5.3 5.2 68 2.6 WNW 24 32 13 17 1014.9 1014.9 0.0
24/03:00am 11.3 5.7 5.2 66 2.8 WNW 24 32 13 17 1014.7 1014.7 0.0
24/02:30am 11.6 6.0 5.5 66 2.8 W 24 33 13 18 1015.0 1015.0 0.0
24/02:00am 11.2 6.4 5.7 69 2.5 WNW 20 28 11 15 1014.9 1014.9 0.0
24/01:30am 11.0 5.9 6.2 72 2.2 WNW 22 28 12 15 1014.6 1014.6 0.0
24/01:00am 10.4 6.4 6.5 77 1.8 W 17 22 9 12 1015.0 1015.0 0.0
24/12:30am 10.8 6.4 7.3 79 1.7 WNW 20 28 11 15 1014.8 1014.8 0.0
24/12:00am 10.3 7.3 7.5 83 1.3 W 13 17 7 9 1015.2 1015.2 0.0

Other Formats:

Comma delimited format used in spreadsheet applications
http://www.bom.gov.au/fwo/IDN60801/IDN60801.94776.axf

JavaScript Object Notation format (JSON) in row-major order
http://www.bom.gov.au/fwo/IDN60801/IDN60801.94776.json